createdAt,value
2022-11-13T00:00:33.436Z,33.25
2022-11-13T00:02:59.813Z,26.92
2022-11-13T00:05:26.164Z,26.92
2022-11-13T00:07:52.446Z,29.17
2022-11-13T00:10:18.803Z,28.15
2022-11-13T00:12:45.123Z,24.55
2022-11-13T00:15:11.586Z,28.70
2022-11-13T00:17:37.849Z,27.10
2022-11-13T00:20:04.359Z,25.50
2022-11-13T00:22:30.624Z,23.35
2022-11-13T00:24:56.918Z,22.67
2022-11-13T00:27:23.184Z,22.30
2022-11-13T00:29:49.463Z,23.02
2022-11-13T00:32:15.738Z,26.35
2022-11-13T00:34:47.611Z,24.88
2022-11-13T00:37:14.499Z,23.98
2022-11-13T00:39:40.765Z,22.98
2022-11-13T00:42:07.046Z,23.38
2022-11-13T00:44:33.311Z,25.38
2022-11-13T00:46:59.589Z,21.90
2022-11-13T00:49:25.905Z,24.55
2022-11-13T00:51:52.441Z,19.25
2022-11-13T00:54:18.814Z,23.63
2022-11-13T00:56:45.110Z,20.98
2022-11-13T00:59:11.397Z,21.77
2022-11-13T01:01:37.713Z,20.58
2022-11-13T01:04:04.156Z,22.30
2022-11-13T01:06:30.472Z,17.17
2022-11-13T01:08:57.914Z,23.70
2022-11-13T01:11:25.992Z,24.38
2022-11-13T01:13:52.427Z,19.83
2022-11-13T01:16:20.423Z,19.30
2022-11-13T01:18:46.786Z,20.15
2022-11-13T01:21:14.473Z,18.92
2022-11-13T01:23:40.989Z,19.05
2022-11-13T01:26:17.600Z,21.70
2022-11-13T01:28:44.516Z,20.33
2022-11-13T01:31:16.623Z,19.95
2022-11-13T01:33:43.522Z,19.27
2022-11-13T01:36:23.542Z,20.85
2022-11-13T01:38:50.604Z,19.65
2022-11-13T01:41:23.598Z,24.17
2022-11-13T01:43:50.676Z,17.50
2022-11-13T01:46:38.658Z,21.20
2022-11-13T01:49:10.670Z,17.40
2022-11-13T01:51:36.940Z,20.77
2022-11-13T01:54:04.861Z,19.92
2022-11-13T01:56:31.210Z,22.15
2022-11-13T01:59:01.776Z,22.35
2022-11-13T02:03:54.534Z,20.50
2022-11-13T02:06:21.931Z,23.45
2022-11-13T02:08:49.391Z,21.30
2022-11-13T02:11:15.828Z,18.70
2022-11-13T02:13:42.480Z,21.27
2022-11-13T02:16:10.295Z,19.52
2022-11-13T02:18:36.925Z,16.50
2022-11-13T02:21:06.330Z,16.08
2022-11-13T02:23:47.598Z,15.82
2022-11-13T02:26:14.472Z,14.85
2022-11-13T02:28:40.753Z,16.08
2022-11-13T02:31:08.057Z,17.23
2022-11-13T02:33:34.343Z,16.52
2022-11-13T02:36:00.937Z,18.83
2022-11-13T02:38:27.563Z,18.85
2022-11-13T02:40:54.138Z,19.77
2022-11-13T02:43:20.415Z,21.75
2022-11-13T02:45:46.700Z,21.23
2022-11-13T02:48:12.985Z,17.90
2022-11-13T02:50:39.363Z,20.58
2022-11-13T02:53:05.868Z,24.27
2022-11-13T02:55:32.684Z,27.13
2022-11-13T02:57:58.965Z,19.38
2022-11-13T03:00:25.299Z,15.40
2022-11-13T03:02:51.576Z,22.85
2022-11-13T03:05:17.944Z,20.98
2022-11-13T03:07:44.381Z,20.00
2022-11-13T03:10:11.136Z,19.15
2022-11-13T03:12:38.697Z,23.45
2022-11-13T03:15:05.985Z,27.20
2022-11-13T03:17:32.651Z,19.85
2022-11-13T03:19:59.466Z,23.73
2022-11-13T03:22:25.924Z,27.58
2022-11-13T03:24:52.207Z,21.98
2022-11-13T03:27:18.640Z,24.00
2022-11-13T03:29:44.903Z,24.73
2022-11-13T03:32:11.206Z,21.20
2022-11-13T03:34:38.593Z,18.48
2022-11-13T03:37:04.886Z,21.92
2022-11-13T03:39:31.160Z,22.35
2022-11-13T03:41:57.434Z,17.58
2022-11-13T03:44:23.713Z,16.40
2022-11-13T03:46:49.993Z,22.17
2022-11-13T03:49:16.296Z,16.98
2022-11-13T03:51:42.586Z,21.40
2022-11-13T03:54:08.851Z,18.50
2022-11-13T03:56:35.128Z,18.70
2022-11-13T03:59:01.475Z,17.13
2022-11-13T04:01:27.785Z,17.05
2022-11-13T04:03:55.067Z,23.15
2022-11-13T04:06:21.987Z,19.73
2022-11-13T04:08:48.307Z,17.17
2022-11-13T04:11:14.593Z,17.75
2022-11-13T04:13:40.898Z,17.60
2022-11-13T04:16:07.344Z,16.95
2022-11-13T04:18:33.608Z,16.65
2022-11-13T04:21:00.494Z,13.57
2022-11-13T04:23:26.745Z,17.45
2022-11-13T04:25:52.993Z,18.30
2022-11-13T04:28:19.242Z,17.63
2022-11-13T04:30:45.510Z,19.48
2022-11-13T04:33:11.762Z,18.27
2022-11-13T04:35:38.127Z,20.45
2022-11-13T04:38:04.573Z,20.10
2022-11-13T04:40:30.894Z,13.35
2022-11-13T04:42:57.168Z,17.15
2022-11-13T04:45:24.192Z,15.70
2022-11-13T04:47:51.140Z,15.95
2022-11-13T04:50:17.488Z,19.85
2022-11-13T04:52:43.781Z,20.00
2022-11-13T04:55:10.768Z,15.30
2022-11-13T04:57:37.086Z,21.02
2022-11-13T05:00:04.586Z,18.05
2022-11-13T05:02:30.882Z,16.75
2022-11-13T05:05:00.523Z,15.77
2022-11-13T05:07:30.815Z,16.33
2022-11-13T05:09:57.137Z,18.40
2022-11-13T05:12:23.632Z,18.30
2022-11-13T05:14:49.936Z,19.67
2022-11-13T05:17:16.250Z,18.20
2022-11-13T05:19:42.529Z,16.83
2022-11-13T05:22:09.025Z,16.98
2022-11-13T05:24:35.294Z,17.00
2022-11-13T05:27:01.581Z,17.58
2022-11-13T05:29:27.851Z,16.88
2022-11-13T05:31:54.158Z,23.10
2022-11-13T05:34:20.491Z,25.33
2022-11-13T05:36:46.789Z,27.60
2022-11-13T05:39:13.096Z,23.90
2022-11-13T05:41:39.457Z,23.48
2022-11-13T05:44:05.743Z,23.23
2022-11-13T05:46:32.035Z,22.30
2022-11-13T05:48:59.290Z,22.90
2022-11-13T05:51:27.430Z,26.55
2022-11-13T05:53:54.124Z,22.27
2022-11-13T05:56:20.389Z,22.65
2022-11-13T05:58:47.583Z,21.48
2022-11-13T06:01:22.060Z,22.67
2022-11-13T06:03:48.969Z,24.95
2022-11-13T06:06:16.747Z,21.85
2022-11-13T06:08:43.342Z,22.17
2022-11-13T06:11:11.332Z,27.65
2022-11-13T06:13:37.845Z,22.70
2022-11-13T06:16:08.581Z,19.98
2022-11-13T06:18:35.102Z,22.75
2022-11-13T06:21:02.343Z,22.17
2022-11-13T06:23:28.973Z,24.27
2022-11-13T06:26:01.888Z,23.17
2022-11-13T06:28:28.382Z,22.25
2022-11-13T06:30:54.885Z,20.30
2022-11-13T06:33:21.169Z,22.17
2022-11-13T06:35:47.470Z,20.48
2022-11-13T06:38:13.942Z,18.92
2022-11-13T06:40:40.334Z,18.55
2022-11-13T06:43:06.611Z,19.70
2022-11-13T06:45:32.884Z,17.85
2022-11-13T06:47:59.152Z,18.00
2022-11-13T06:50:25.511Z,16.75
2022-11-13T06:52:51.897Z,17.63
2022-11-13T06:55:18.206Z,18.98
2022-11-13T06:57:44.712Z,20.35
2022-11-13T07:00:11.783Z,18.02
2022-11-13T07:02:38.058Z,20.20
2022-11-13T07:05:04.512Z,17.20
2022-11-13T07:07:30.889Z,14.30
2022-11-13T07:09:57.169Z,14.45
2022-11-13T07:12:23.479Z,17.25
2022-11-13T07:14:49.779Z,18.58
2022-11-13T07:17:16.225Z,19.13
2022-11-13T07:19:42.543Z,18.85
2022-11-13T07:22:08.897Z,13.85
2022-11-13T07:24:35.184Z,16.33
2022-11-13T07:27:01.469Z,22.98
2022-11-13T07:29:27.828Z,17.90
2022-11-13T07:31:54.388Z,16.65
2022-11-13T07:34:20.680Z,17.25
2022-11-13T07:36:47.013Z,21.80
2022-11-13T07:39:13.384Z,20.23
2022-11-13T07:41:39.694Z,19.05
2022-11-13T07:44:09.152Z,21.40
2022-11-13T07:46:36.002Z,21.90
2022-11-13T07:49:02.276Z,17.65
2022-11-13T07:51:28.552Z,19.60
2022-11-13T07:53:54.815Z,25.35
2022-11-13T07:56:23.357Z,19.33
2022-11-13T07:58:49.763Z,21.73
2022-11-13T08:01:16.101Z,18.85
2022-11-13T08:03:42.409Z,26.38
2022-11-13T08:06:08.812Z,20.00
2022-11-13T08:08:35.372Z,16.30
2022-11-13T08:11:05.379Z,24.25
2022-11-13T08:13:31.726Z,25.33
2022-11-13T08:16:01.741Z,24.17
2022-11-13T08:18:28.597Z,15.80
2022-11-13T08:20:55.328Z,18.77
2022-11-13T08:23:21.611Z,18.15
2022-11-13T08:25:47.967Z,19.30
2022-11-13T08:28:14.613Z,20.23
2022-11-13T08:30:43.177Z,18.20
2022-11-13T08:33:09.572Z,17.92
2022-11-13T08:35:35.877Z,18.38
2022-11-13T08:38:03.217Z,19.05
2022-11-13T08:40:30.592Z,16.40
2022-11-13T08:43:03.746Z,14.82
2022-11-13T08:45:30.765Z,19.27
2022-11-13T08:48:01.260Z,16.70
2022-11-13T08:52:54.630Z,17.80
2022-11-13T08:55:21.029Z,15.40
2022-11-13T08:57:47.311Z,14.85
2022-11-13T09:00:13.884Z,15.20
2022-11-13T09:02:40.165Z,14.15
2022-11-13T09:05:06.834Z,13.77
2022-11-13T09:07:33.247Z,15.05
2022-11-13T09:09:59.554Z,14.02
2022-11-13T09:12:25.842Z,13.85
2022-11-13T09:14:52.119Z,11.77
2022-11-13T09:17:18.404Z,14.50
2022-11-13T09:19:44.672Z,12.35
2022-11-13T09:22:11.038Z,12.82
2022-11-13T09:24:37.837Z,11.95
2022-11-13T09:27:04.481Z,11.38
2022-11-13T09:29:30.782Z,13.30
2022-11-13T09:31:57.198Z,11.48
2022-11-13T09:34:25.377Z,11.05
2022-11-13T09:36:51.664Z,11.70
2022-11-13T09:39:17.984Z,13.15
2022-11-13T09:41:46.330Z,13.18
2022-11-13T09:44:15.925Z,11.27
2022-11-13T09:46:49.297Z,15.95
2022-11-13T09:49:22.021Z,9.70
2022-11-13T09:51:52.767Z,13.10
2022-11-13T09:54:19.330Z,10.20
2022-11-13T09:56:46.894Z,13.00
2022-11-13T09:59:16.837Z,13.60
2022-11-13T10:01:58.390Z,11.43
2022-11-13T10:04:31.092Z,11.63
2022-11-13T10:07:08.448Z,14.25
2022-11-13T10:09:57.378Z,15.50
2022-11-13T10:12:23.701Z,11.60
2022-11-13T10:14:52.420Z,13.57
2022-11-13T10:17:20.957Z,10.52
2022-11-13T10:19:53.043Z,12.95
2022-11-13T10:22:33.238Z,11.77
2022-11-13T10:25:04.733Z,13.77
2022-11-13T10:27:31.141Z,14.63
2022-11-13T10:29:57.765Z,12.32
2022-11-13T10:32:30.392Z,10.70
2022-11-13T10:35:01.453Z,10.25
2022-11-13T10:37:52.237Z,12.00
2022-11-13T10:40:25.434Z,10.85
2022-11-13T10:42:51.885Z,10.95
2022-11-13T10:45:19.136Z,8.82
2022-11-13T10:48:09.472Z,8.77
2022-11-13T10:50:36.233Z,10.48
2022-11-13T10:53:02.550Z,9.00
2022-11-13T10:55:28.848Z,7.95
2022-11-13T10:57:56.744Z,8.35
2022-11-13T11:00:25.088Z,10.23
2022-11-13T11:02:51.391Z,9.35
2022-11-13T11:05:19.377Z,8.35
2022-11-13T11:07:46.220Z,7.53
2022-11-13T11:10:21.781Z,6.38
2022-11-13T11:12:51.972Z,7.20
2022-11-13T11:15:22.726Z,7.35
2022-11-13T11:17:54.470Z,10.10
2022-11-13T11:20:29.334Z,6.95
2022-11-13T11:22:59.826Z,6.15
2022-11-13T11:25:29.215Z,7.53
2022-11-13T11:28:00.798Z,6.97
2022-11-13T11:30:29.617Z,7.10
2022-11-13T11:32:57.845Z,9.90
2022-11-13T11:35:38.786Z,7.13
2022-11-13T11:38:16.988Z,8.00
2022-11-13T11:40:46.450Z,7.38
2022-11-13T11:43:27.263Z,6.85
2022-11-13T11:45:53.858Z,6.22
2022-11-13T11:48:22.476Z,7.35
2022-11-13T11:50:53.686Z,6.63
2022-11-13T11:53:28.956Z,5.78
2022-11-13T11:55:55.214Z,10.32
2022-11-13T11:58:21.481Z,7.85
2022-11-13T12:00:52.319Z,5.97
2022-11-13T12:03:18.702Z,10.27
2022-11-13T12:05:57.111Z,6.95
2022-11-13T12:08:33.622Z,8.68
2022-11-13T12:11:18.928Z,7.50
2022-11-13T12:13:53.567Z,7.70
2022-11-13T12:16:25.248Z,7.22
2022-11-13T12:19:03.632Z,7.97
2022-11-13T12:21:48.069Z,8.15
2022-11-13T12:24:33.085Z,8.60
2022-11-13T12:27:02.445Z,10.68
2022-11-13T12:29:52.115Z,8.57
2022-11-13T12:32:38.361Z,12.05
2022-11-13T12:35:08.439Z,7.03
2022-11-13T12:37:34.708Z,11.10
2022-11-13T12:40:05.297Z,7.47
2022-11-13T12:42:34.448Z,7.07
2022-11-13T12:45:15.789Z,6.47
2022-11-13T12:47:43.424Z,10.55
2022-11-13T12:50:32.471Z,6.95
2022-11-13T12:52:59.936Z,6.70
2022-11-13T12:55:31.604Z,6.78
2022-11-13T12:58:07.093Z,5.30
2022-11-13T13:00:34.700Z,6.95
2022-11-13T13:03:13.461Z,6.60
2022-11-13T13:05:39.708Z,6.72
2022-11-13T13:08:05.997Z,7.15
2022-11-13T13:10:36.366Z,6.63
2022-11-13T13:13:13.619Z,6.03
2022-11-13T13:15:43.168Z,8.43
2022-11-13T13:18:10.021Z,6.05
2022-11-13T13:20:37.727Z,5.55
2022-11-13T13:23:08.464Z,6.10
2022-11-13T13:25:35.729Z,6.45
2022-11-13T13:28:03.486Z,4.38
2022-11-13T13:30:34.703Z,6.13
2022-11-13T13:33:16.163Z,8.60
2022-11-13T13:36:00.538Z,4.35
2022-11-13T13:38:27.072Z,8.02
2022-11-13T13:41:01.692Z,8.52
2022-11-13T13:43:40.318Z,7.43
2022-11-13T13:46:21.696Z,5.90
2022-11-13T13:48:49.535Z,6.45
2022-11-13T13:51:26.433Z,6.28
2022-11-13T13:53:53.490Z,5.32
2022-11-13T13:56:20.293Z,6.78
2022-11-13T13:58:47.102Z,5.13
2022-11-13T14:01:20.192Z,5.85
2022-11-13T14:03:46.822Z,10.20
2022-11-13T14:06:23.495Z,5.72
2022-11-13T14:08:49.785Z,6.32
2022-11-13T14:11:17.952Z,7.32
2022-11-13T14:13:44.232Z,4.28
2022-11-13T14:16:10.593Z,7.32
2022-11-13T14:18:36.904Z,5.85
2022-11-13T14:21:04.820Z,8.50
2022-11-13T14:23:32.805Z,5.18
2022-11-13T14:25:59.367Z,5.20
2022-11-13T14:28:27.520Z,6.28
2022-11-13T14:30:55.480Z,4.10
2022-11-13T14:33:23.230Z,6.45
2022-11-13T14:35:54.282Z,5.70
2022-11-13T14:38:24.870Z,6.00
2022-11-13T14:40:51.323Z,6.25
2022-11-13T14:43:20.789Z,7.75
2022-11-13T14:45:57.621Z,5.57
2022-11-13T14:48:26.226Z,6.32
2022-11-13T14:50:54.887Z,7.30
2022-11-13T14:53:32.712Z,7.25
2022-11-13T14:56:01.377Z,9.70
2022-11-13T14:58:35.355Z,9.10
2022-11-13T15:01:28.095Z,5.82
2022-11-13T15:03:54.421Z,7.55
2022-11-13T15:06:25.276Z,7.25
2022-11-13T15:08:54.475Z,5.75
2022-11-13T15:11:21.452Z,7.43
2022-11-13T15:13:49.633Z,7.18
2022-11-13T15:16:18.424Z,7.75
2022-11-13T15:18:47.757Z,6.53
2022-11-13T15:21:14.011Z,10.85
2022-11-13T15:23:40.909Z,12.80
2022-11-13T15:26:09.060Z,10.95
2022-11-13T15:28:35.490Z,9.68
2022-11-13T15:31:01.809Z,9.00
2022-11-13T15:33:28.389Z,14.70
2022-11-13T15:35:54.840Z,11.80
2022-11-13T15:38:21.138Z,15.45
2022-11-13T15:40:47.650Z,10.07
2022-11-13T15:43:18.121Z,13.18
2022-11-13T15:45:44.761Z,11.85
2022-11-13T15:48:11.230Z,12.98
2022-11-13T15:50:37.520Z,16.02
2022-11-13T15:53:05.374Z,13.23
2022-11-13T15:55:32.262Z,14.18
2022-11-13T15:57:58.568Z,19.73
2022-11-13T16:00:26.201Z,18.10
2022-11-13T16:02:56.551Z,18.05
2022-11-13T16:05:25.116Z,19.10
2022-11-13T16:07:52.671Z,20.27
2022-11-13T16:10:19.564Z,25.98
2022-11-13T16:12:46.037Z,19.38
2022-11-13T16:15:16.693Z,24.30
2022-11-13T16:17:45.184Z,20.83
2022-11-13T16:20:12.686Z,24.73
2022-11-13T16:22:38.975Z,22.23
2022-11-13T16:25:05.748Z,22.33
2022-11-13T16:27:33.954Z,20.73
2022-11-13T16:30:05.486Z,17.20
2022-11-13T16:32:33.097Z,24.08
2022-11-13T16:34:59.399Z,24.02
2022-11-13T16:37:25.940Z,26.70
2022-11-13T16:39:52.219Z,19.65
2022-11-13T16:42:18.578Z,22.42
2022-11-13T16:44:44.919Z,19.38
2022-11-13T16:47:22.626Z,17.92
2022-11-13T16:49:49.352Z,21.08
2022-11-13T16:52:15.913Z,21.63
2022-11-13T16:54:42.189Z,23.75
2022-11-13T16:57:12.499Z,16.27
2022-11-13T16:59:38.928Z,18.27
2022-11-13T17:02:12.255Z,17.45
2022-11-13T17:04:38.529Z,17.48
2022-11-13T17:07:04.875Z,21.45
2022-11-13T17:09:31.255Z,20.83
2022-11-13T17:11:57.626Z,15.68
2022-11-13T17:14:23.900Z,19.35
2022-11-13T17:16:50.186Z,22.38
2022-11-13T17:19:16.484Z,18.67
2022-11-13T17:21:44.337Z,18.40
2022-11-13T17:24:10.933Z,18.88
2022-11-13T17:26:37.210Z,31.88
2022-11-13T17:29:05.659Z,43.42
2022-11-13T17:31:31.955Z,38.33
2022-11-13T17:33:58.244Z,26.58
2022-11-13T17:36:24.611Z,32.17
2022-11-13T17:38:51.002Z,25.33
2022-11-13T17:41:17.622Z,24.38
2022-11-13T17:43:44.244Z,23.25
2022-11-13T17:46:12.493Z,25.30
2022-11-13T17:48:38.886Z,27.58
2022-11-13T17:51:06.816Z,26.90
2022-11-13T17:53:33.436Z,21.35
2022-11-13T17:56:00.841Z,23.05
2022-11-13T17:58:27.849Z,24.60
2022-11-13T18:00:54.589Z,27.48
2022-11-13T18:03:20.917Z,28.92
2022-11-13T18:05:47.250Z,25.85
2022-11-13T18:08:14.226Z,26.55
2022-11-13T18:10:41.337Z,23.90
2022-11-13T18:13:08.033Z,21.23
2022-11-13T18:15:38.864Z,26.60
2022-11-13T18:18:05.807Z,22.52
2022-11-13T18:20:32.926Z,21.73
2022-11-13T18:22:59.344Z,26.52
2022-11-13T18:25:25.880Z,25.55
2022-11-13T18:27:52.230Z,22.98
2022-11-13T18:30:19.923Z,26.80
2022-11-13T18:32:46.582Z,27.13
2022-11-13T18:35:12.993Z,28.95
2022-11-13T18:37:39.327Z,23.05
2022-11-13T18:40:06.093Z,35.25
2022-11-13T18:42:32.371Z,29.13
2022-11-13T18:45:01.732Z,30.85
2022-11-13T18:47:31.901Z,32.50
2022-11-13T18:49:58.317Z,30.48
2022-11-13T18:52:25.605Z,34.10
2022-11-13T18:54:51.934Z,32.65
2022-11-13T18:57:18.229Z,30.95
2022-11-13T18:59:44.564Z,39.33
2022-11-13T19:02:12.515Z,29.75
2022-11-13T19:04:38.857Z,31.73
2022-11-13T19:07:05.212Z,35.25
2022-11-13T19:09:31.561Z,35.40
2022-11-13T19:11:57.899Z,28.08
2022-11-13T19:14:24.185Z,30.60
2022-11-13T19:16:50.462Z,29.90
2022-11-13T19:19:18.521Z,30.50
2022-11-13T19:21:45.118Z,34.38
2022-11-13T19:24:11.971Z,30.60
2022-11-13T19:26:38.760Z,36.38
2022-11-13T19:29:05.067Z,36.65
2022-11-13T19:31:31.428Z,41.80
2022-11-13T19:34:01.921Z,33.97
2022-11-13T19:38:54.925Z,34.50
2022-11-13T19:41:21.713Z,37.47
2022-11-13T19:43:48.715Z,37.15
2022-11-13T19:46:15.733Z,38.33
2022-11-13T19:48:42.906Z,37.75
2022-11-13T19:51:09.831Z,34.25
2022-11-13T19:53:36.615Z,42.28
2022-11-13T19:56:03.009Z,40.70
2022-11-13T19:58:29.851Z,45.00
2022-11-13T20:00:56.702Z,39.38
2022-11-13T20:03:24.461Z,48.53
2022-11-13T20:05:54.784Z,43.50
2022-11-13T20:08:24.141Z,48.38
2022-11-13T20:10:53.376Z,47.05
2022-11-13T20:13:19.695Z,42.83
2022-11-13T20:15:52.415Z,41.63
2022-11-13T20:18:18.705Z,41.25
2022-11-13T20:20:45.598Z,45.90
2022-11-13T20:23:12.963Z,38.95
2022-11-13T20:25:39.244Z,40.17
2022-11-13T20:28:05.533Z,43.88
2022-11-13T20:30:31.800Z,51.45
2022-11-13T20:32:58.081Z,47.95
2022-11-13T20:35:24.357Z,46.65
2022-11-13T20:37:50.702Z,50.85
2022-11-13T20:40:17.748Z,50.70
2022-11-13T20:42:44.036Z,50.95
2022-11-13T20:45:10.322Z,43.35
2022-11-13T20:47:36.604Z,43.83
2022-11-13T20:50:02.894Z,49.35
2022-11-13T20:52:29.212Z,51.90
2022-11-13T20:54:55.512Z,44.67
2022-11-13T20:57:22.443Z,48.97
2022-11-13T20:59:48.800Z,45.50
2022-11-13T21:02:15.104Z,44.33
2022-11-13T21:04:41.382Z,49.08
2022-11-13T21:07:07.803Z,47.78
2022-11-13T21:09:34.334Z,48.60
2022-11-13T21:12:00.904Z,48.72
2022-11-13T21:14:27.330Z,53.10
2022-11-13T21:16:53.724Z,47.00
2022-11-13T21:19:27.843Z,50.47
2022-11-13T21:21:54.142Z,53.00
2022-11-13T21:24:20.557Z,49.60
2022-11-13T21:26:48.251Z,51.53
2022-11-13T21:29:14.517Z,51.28
2022-11-13T21:31:40.798Z,53.80
2022-11-13T21:34:09.285Z,45.22
2022-11-13T21:36:35.561Z,50.45
2022-11-13T21:39:01.837Z,46.25
2022-11-13T21:41:28.194Z,47.63
2022-11-13T21:43:58.419Z,52.92
2022-11-13T21:46:26.522Z,43.10
2022-11-13T21:48:57.165Z,51.15
2022-11-13T21:51:23.489Z,54.80
2022-11-13T21:53:50.064Z,54.00
2022-11-13T21:56:16.426Z,48.17
2022-11-13T21:58:42.792Z,53.92
2022-11-13T22:01:09.581Z,57.58
2022-11-13T22:03:36.297Z,55.70
2022-11-13T22:06:25.460Z,59.78
2022-11-13T22:08:59.142Z,57.25
2022-11-13T22:11:26.445Z,51.05
2022-11-13T22:13:52.973Z,50.50
2022-11-13T22:16:19.775Z,59.92
2022-11-13T22:18:46.338Z,52.20
2022-11-13T22:21:13.837Z,54.05
2022-11-13T22:23:40.889Z,57.33
2022-11-13T22:26:11.835Z,56.28
2022-11-13T22:28:39.225Z,55.75
2022-11-13T22:31:06.143Z,53.63
2022-11-13T22:33:33.700Z,52.88
2022-11-13T22:36:00.716Z,53.75
2022-11-13T22:38:27.335Z,54.47
2022-11-13T22:40:53.974Z,51.63
2022-11-13T22:43:20.303Z,51.75
2022-11-13T22:45:46.574Z,47.05
2022-11-13T22:48:13.078Z,54.55
2022-11-13T22:50:39.345Z,51.13
2022-11-13T22:53:05.666Z,49.15
2022-11-13T22:55:32.012Z,43.80
2022-11-13T22:57:58.906Z,40.58
2022-11-13T23:00:25.180Z,42.63
2022-11-13T23:02:51.532Z,41.88
2022-11-13T23:05:18.102Z,44.80
2022-11-13T23:07:44.579Z,39.78
2022-11-13T23:10:10.881Z,46.42
2022-11-13T23:12:37.947Z,48.55
2022-11-13T23:15:04.436Z,45.95
2022-11-13T23:17:30.706Z,42.35
2022-11-13T23:19:57.054Z,54.63
2022-11-13T23:22:23.369Z,47.45
2022-11-13T23:24:49.712Z,49.35
2022-11-13T23:27:16.020Z,54.50
2022-11-13T23:29:47.240Z,52.25
2022-11-13T23:32:16.125Z,53.00
2022-11-13T23:34:58.583Z,49.03
2022-11-13T23:37:25.688Z,49.10
2022-11-13T23:39:51.976Z,51.33
2022-11-13T23:42:39.210Z,46.20
2022-11-13T23:45:04.797Z,48.05
2022-11-13T23:47:31.711Z,42.60
2022-11-13T23:49:57.991Z,50.83
2022-11-13T23:52:24.268Z,46.70
2022-11-13T23:54:50.549Z,50.92
2022-11-13T23:57:16.830Z,49.28
2022-11-13T23:59:43.207Z,46.08
